Time;durP1;ratioP1;P1;durP2;ratioP2;P2;SDS_P1;SDS_P2;PMS_P1;PMS_P2;Temp;Humidity;BMP_temperature;BMP_pressure;BME280_temperature;BME280_humidity;BME280_pressure;Samples;Min_cycle;Max_cycle;Signal;HPM_P1;HPM_P2
2021/12/21 00:00:31;;;;;;;0.85;0.85;;;;;;;3.58;64.83;102943.22;5030130;28;20040;-83
2021/12/21 00:02:57;;;;;;;0.17;0.17;;;;;;;3.54;64.71;102943.09;5022175;28;20064;-83
2021/12/21 00:05:28;;;;;;;0.10;0.10;;;;;;;3.53;64.84;102937.78;5030247;28;20040;-83
2021/12/21 00:07:57;;;;;;;0.35;0.35;;;;;;;3.51;64.22;102942.94;5026505;28;20511;-84
2021/12/21 00:10:27;;;;;;;0.20;0.20;;;;;;;3.49;64.08;102944.63;5027025;28;20046;-84
2021/12/21 00:18:35;;;;;;;0.20;0.20;;;;;;;3.40;64.63;102949.44;5069331;28;20428;-82
2021/12/21 00:21:12;;;;;;;0.20;0.20;;;;;;;3.38;64.97;102954.63;5062794;28;20475;-82
2021/12/21 00:23:42;;;;;;;0.13;0.13;;;;;;;3.40;65.04;102954.69;5064111;28;20070;-82
2021/12/21 00:26:12;;;;;;;0.20;0.20;;;;;;;3.39;64.36;102948.56;5065532;28;20071;-81
2021/12/21 00:28:49;;;;;;;0.20;0.20;;;;;;;3.38;64.43;102948.50;5062304;28;20039;-82
2021/12/21 00:31:17;;;;;;;0.20;0.20;;;;;;;3.36;64.62;102945.78;5066112;28;20033;-82
2021/12/21 00:33:45;;;;;;;0.40;0.40;;;;;;;3.34;64.94;102938.69;5064714;28;20025;-82
2021/12/21 00:36:13;;;;;;;0.20;0.20;;;;;;;3.32;64.64;102936.03;5062564;28;20048;-82
2021/12/21 00:38:39;;;;;;;0.20;0.20;;;;;;;3.31;64.53;102933.34;5064492;28;20043;-82
2021/12/21 00:41:06;;;;;;;0.10;0.10;;;;;;;3.28;65.17;102934.09;5064079;28;20082;-82
2021/12/21 00:43:32;;;;;;;0.20;0.20;;;;;;;3.29;65.02;102934.97;5062892;28;20029;-82
2021/12/21 00:45:59;;;;;;;0.20;0.20;;;;;;;3.28;64.81;102927.94;5064116;28;20025;-82
2021/12/21 00:48:29;;;;;;;0.20;0.20;;;;;;;3.28;65.08;102928.88;5062617;28;20025;-82
2021/12/21 00:50:58;;;;;;;0.10;0.10;;;;;;;3.28;64.95;102914.84;5062451;28;20029;-82
2021/12/21 00:53:25;;;;;;;0.10;0.10;;;;;;;3.26;63.85;102921.78;5059068;28;20054;-82
2021/12/21 00:55:51;;;;;;;0.20;0.20;;;;;;;3.21;64.20;102911.06;5065420;28;20043;-82
2021/12/21 00:58:17;;;;;;;4.80;3.60;;;;;;;3.21;63.88;102916.31;5061578;28;20060;-83
2021/12/21 01:00:43;;;;;;;0.20;0.20;;;;;;;3.18;64.23;102917.09;5062011;28;20040;-82
2021/12/21 01:03:13;;;;;;;0.20;0.20;;;;;;;3.16;63.87;102918.72;5061995;28;20041;-82
2021/12/21 01:09:09;;;;;;;0.20;0.20;;;;;;;3.16;64.06;102918.72;5069818;28;20467;-81
2021/12/21 01:11:41;;;;;;;0.13;0.13;;;;;;;3.12;64.28;102915.94;5059420;28;20041;-84
2021/12/21 01:20:24;;;;;;;0.15;0.15;;;;;;;3.05;64.74;102919.97;5077085;27;20822;-83
2021/12/21 01:25:40;;;;;;;0.20;0.20;;;;;;;3.02;64.03;102905.03;5079899;27;20431;-84
2021/12/21 01:33:50;;;;;;;0.20;0.20;;;;;;;2.97;64.26;102905.66;5065909;27;20429;-83
2021/12/21 01:36:26;;;;;;;0.30;0.30;;;;;;;2.97;63.81;102905.66;5041267;28;20095;-83
2021/12/21 01:39:01;;;;;;;0.13;0.13;;;;;;;2.96;64.59;102909.09;5048219;28;20033;-84
2021/12/21 01:41:36;;;;;;;0.20;0.20;;;;;;;2.95;64.60;102902.06;5042832;28;20032;-82
2021/12/21 01:49:49;;;;;;;7.68;1.98;;;;;;;2.89;64.66;102898.34;5086914;28;20036;-84
2021/12/21 01:52:18;;;;;;;0.10;0.10;;;;;;;2.88;64.72;102893.94;5086070;28;20029;-82
2021/12/21 01:54:45;;;;;;;0.40;0.40;;;;;;;2.86;64.97;102899.94;5087840;28;20558;-82
2021/12/21 01:57:12;;;;;;;0.13;0.13;;;;;;;2.86;64.62;102892.97;5079942;28;20059;-84
2021/12/21 01:59:39;;;;;;;0.13;0.13;;;;;;;2.85;64.11;102891.16;5082687;28;20074;-83
2021/12/21 02:02:08;;;;;;;1.13;1.13;;;;;;;2.84;64.42;102894.63;5076744;28;20040;-83
2021/12/21 02:04:35;;;;;;;0.20;0.20;;;;;;;2.82;64.08;102885.81;5078181;28;20068;-83
2021/12/21 02:07:02;;;;;;;0.20;0.20;;;;;;;2.81;63.98;102884.00;5078197;28;20078;-84
2021/12/21 02:09:37;;;;;;;0.20;0.20;;;;;;;2.80;64.00;102889.19;5083851;28;20089;-83
2021/12/21 02:12:05;;;;;;;0.43;0.43;;;;;;;2.76;63.93;102885.53;5083002;28;20025;-81
2021/12/21 02:14:31;;;;;;;0.20;0.20;;;;;;;2.74;64.20;102892.41;5080991;28;20433;-83
2021/12/21 02:17:18;;;;;;;0.20;0.20;;;;;;;2.73;64.63;102882.78;5081476;28;20081;-83
2021/12/21 02:20:27;;;;;;;0.13;0.13;;;;;;;2.80;64.67;102882.22;5090457;28;20142;-81
2021/12/21 02:23:01;;;;;;;0.10;0.10;;;;;;;2.71;64.72;102887.06;5083997;28;20630;-83
2021/12/21 02:30:54;;;;;;;0.10;0.10;;;;;;;2.66;64.46;102872.88;5074881;27;20929;-84
2021/12/21 02:33:23;;;;;;;0.20;0.20;;;;;;;2.64;64.57;102879.75;5060335;28;20101;-84
2021/12/21 02:35:49;;;;;;;0.10;0.10;;;;;;;2.62;64.05;102877.06;5057653;28;20040;-83
2021/12/21 02:38:16;;;;;;;0.30;0.30;;;;;;;2.61;64.85;102879.63;5044239;28;20072;-84
2021/12/21 02:40:42;;;;;;;0.20;0.20;;;;;;;2.59;65.03;102877.81;5039999;28;20057;-83
2021/12/21 02:43:10;;;;;;;0.20;0.20;;;;;;;2.59;64.68;102877.81;5040100;28;20124;-83
2021/12/21 02:45:38;;;;;;;0.20;0.20;;;;;;;2.58;64.98;102878.63;5039761;28;20025;-80
2021/12/21 02:48:05;;;;;;;0.22;0.22;;;;;;;2.57;64.92;102878.56;5039418;28;20033;-83
2021/12/21 02:50:31;;;;;;;0.10;0.10;;;;;;;2.56;65.10;102882.00;5036847;28;20053;-83
2021/12/21 02:52:59;;;;;;;0.13;0.13;;;;;;;2.55;64.69;102881.09;5040584;28;20026;-84
2021/12/21 02:55:26;;;;;;;0.10;0.10;;;;;;;2.55;64.31;102886.34;5037540;28;20472;-84
2021/12/21 02:57:53;;;;;;;0.10;0.10;;;;;;;2.55;64.20;102878.47;5039072;28;20460;-84
2021/12/21 03:00:28;;;;;;;0.20;0.20;;;;;;;2.53;64.13;102882.78;5041857;28;20029;-84
2021/12/21 03:03:10;;;;;;;0.20;0.20;;;;;;;2.55;63.85;102886.34;5042259;28;20036;-83
2021/12/21 03:05:52;;;;;;;0.20;0.20;;;;;;;2.54;64.08;102879.34;5048191;28;20045;-83
2021/12/21 03:08:55;;;;;;;0.20;0.20;;;;;;;2.50;64.97;102881.72;5047362;28;20029;-84
2021/12/21 03:11:19;;;;;;;0.10;0.10;;;;;;;2.48;64.32;102885.97;5049453;28;20053;-84
2021/12/21 03:16:36;;;;;;;0.20;0.20;;;;;;;2.46;64.55;102875.47;5061488;28;20196;-82
2021/12/21 03:19:04;;;;;;;0.20;0.20;;;;;;;2.45;64.22;102872.78;5031759;28;20378;-84
2021/12/21 03:21:30;;;;;;;0.20;0.20;;;;;;;2.41;64.35;102875.22;5015099;28;20044;-82
2021/12/21 03:23:57;;;;;;;0.20;0.20;;;;;;;2.39;63.79;102870.75;5016392;28;20038;-84
2021/12/21 03:26:23;;;;;;;0.20;0.20;;;;;;;2.37;64.31;102865.47;5014404;28;20092;-83
2021/12/21 03:28:49;;;;;;;0.10;0.10;;;;;;;2.35;64.55;102871.44;5020921;28;20026;-84
2021/12/21 03:31:16;;;;;;;0.20;0.20;;;;;;;2.33;65.00;102874.00;5032850;28;20366;-83
2021/12/21 03:33:42;;;;;;;0.20;0.20;;;;;;;2.34;63.63;102870.53;5021178;28;20034;-82
2021/12/21 03:36:08;;;;;;;0.65;0.65;;;;;;;2.32;64.30;102871.28;5018683;28;20041;-84
2021/12/21 03:38:36;;;;;;;0.20;0.20;;;;;;;2.29;64.16;102874.66;5012606;28;20051;-82
2021/12/21 03:41:07;;;;;;;2.50;1.20;;;;;;;2.26;63.26;102866.69;5033190;28;20025;-84
2021/12/21 03:43:33;;;;;;;0.35;0.35;;;;;;;2.22;63.74;102865.66;5023192;28;20366;-85
2021/12/21 03:46:15;;;;;;;0.20;0.20;;;;;;;2.21;63.57;102874.31;5016194;28;20388;-85
2021/12/21 03:48:46;;;;;;;0.20;0.20;;;;;;;2.21;63.60;102866.47;5014787;28;20061;-84
2021/12/21 03:51:15;;;;;;;0.20;0.20;;;;;;;2.19;63.44;102854.13;5021946;28;20473;-84
2021/12/21 03:53:42;;;;;;;0.10;0.10;;;;;;;2.18;63.45;102861.09;5032014;28;20079;-84
2021/12/21 03:58:55;;;;;;;0.20;0.20;;;;;;;2.18;63.24;102860.19;5069925;28;20429;-83
2021/12/21 04:01:21;;;;;;;0.20;0.20;;;;;;;2.16;63.29;102867.97;5043652;28;20037;-83
2021/12/21 04:03:48;;;;;;;0.20;0.20;;;;;;;2.15;63.47;102863.56;5039799;28;20034;-83
2021/12/21 04:06:15;;;;;;;0.45;0.45;;;;;;;2.13;64.42;102854.75;5040702;28;20116;-83
2021/12/21 04:08:41;;;;;;;0.20;0.20;;;;;;;2.16;64.07;102862.75;5049933;28;20135;-83
2021/12/21 04:11:07;;;;;;;0.20;0.20;;;;;;;2.15;64.15;102858.31;5041806;28;20038;-83
2021/12/21 04:13:33;;;;;;;0.20;0.20;;;;;;;2.16;63.89;102849.66;5042246;28;20037;-83
2021/12/21 04:16:02;;;;;;;0.20;0.20;;;;;;;2.15;63.58;102858.31;5045642;28;20481;-83
2021/12/21 04:18:28;;;;;;;0.20;0.20;;;;;;;2.14;64.17;102855.66;5043666;28;20026;-84
2021/12/21 04:20:54;;;;;;;0.20;0.20;;;;;;;2.12;64.30;102855.59;5042584;28;20040;-84
2021/12/21 04:23:20;;;;;;;0.20;0.20;;;;;;;2.12;64.40;102854.66;5041245;28;20032;-83
2021/12/21 04:25:46;;;;;;;0.52;0.52;;;;;;;2.10;64.59;102844.13;5047443;28;20037;-84
2021/12/21 04:28:12;;;;;;;0.20;0.20;;;;;;;2.09;64.37;102840.66;5050360;28;20063;-84
2021/12/21 04:30:39;;;;;;;0.20;0.20;;;;;;;2.08;64.54;102841.47;5039494;28;20056;-83
2021/12/21 04:33:05;;;;;;;0.40;0.40;;;;;;;2.06;64.65;102840.47;5045023;28;20159;-84
2021/12/21 04:35:31;;;;;;;0.20;0.20;;;;;;;2.04;64.53;102847.34;5040754;28;20476;-84
2021/12/21 04:38:02;;;;;;;0.20;0.20;;;;;;;2.03;64.49;102839.44;5043470;28;20116;-82
2021/12/21 04:40:47;;;;;;;0.10;0.10;;;;;;;2.03;64.52;102836.81;5049083;28;20072;-84
2021/12/21 04:43:13;;;;;;;0.20;0.20;;;;;;;2.00;63.94;102837.56;5048405;28;20025;-83
2021/12/21 04:45:39;;;;;;;0.13;0.13;;;;;;;2.00;64.60;102841.91;5045243;28;20084;-83
2021/12/21 04:48:06;;;;;;;0.15;0.15;;;;;;;1.99;63.41;102834.91;5049053;28;20029;-83
2021/12/21 04:50:32;;;;;;;0.20;0.20;;;;;;;1.98;63.09;102838.31;5034389;28;20030;-82
2021/12/21 04:52:58;;;;;;;0.10;0.10;;;;;;;1.95;63.23;102846.91;5038676;28;20061;-83
2021/12/21 04:55:25;;;;;;;0.13;0.13;;;;;;;1.92;64.40;102838.94;5035194;28;20037;-83
2021/12/21 04:57:51;;;;;;;0.13;0.13;;;;;;;1.90;64.60;102838.84;5041997;28;20072;-84
2021/12/21 05:00:17;;;;;;;0.20;0.20;;;;;;;1.90;63.33;102841.47;5040721;28;20071;-84
2021/12/21 05:02:44;;;;;;;0.20;0.20;;;;;;;1.89;63.98;102844.00;5038550;28;20046;-84
2021/12/21 05:05:11;;;;;;;1.75;0.75;;;;;;;1.87;64.82;102836.09;5032087;28;20037;-84
2021/12/21 05:07:39;;;;;;;0.20;0.20;;;;;;;1.86;64.92;102839.53;5049031;28;20048;-83
2021/12/21 05:10:08;;;;;;;0.10;0.10;;;;;;;1.84;64.83;102838.56;5036827;28;20038;-84
2021/12/21 05:12:36;;;;;;;0.20;0.20;;;;;;;1.84;64.89;102837.66;5036274;28;20026;-83
2021/12/21 05:15:04;;;;;;;15.77;2.58;;;;;;;1.84;64.87;102841.16;5035870;28;20029;-82
2021/12/21 05:17:30;;;;;;;0.20;0.20;;;;;;;1.83;64.95;102833.25;5025871;28;20034;-82
2021/12/21 05:19:56;;;;;;;0.20;0.20;;;;;;;1.82;64.72;102827.16;5031810;28;20029;-82
2021/12/21 05:22:23;;;;;;;0.17;0.17;;;;;;;1.82;64.20;102827.16;5033428;28;20022;-81
2021/12/21 05:24:51;;;;;;;0.20;0.20;;;;;;;1.81;64.17;102830.59;5043380;28;20033;-83
2021/12/21 05:27:17;;;;;;;0.20;0.20;;;;;;;1.80;64.43;102823.56;5033011;28;20030;-81
2021/12/21 05:29:43;;;;;;;0.17;0.17;;;;;;;1.80;64.45;102833.13;5031460;28;20522;-84
2021/12/21 05:32:09;;;;;;;0.20;0.20;;;;;;;1.80;64.59;102827.91;5032828;28;20090;-83
2021/12/21 05:34:36;;;;;;;0.20;0.20;;;;;;;1.80;64.62;102834.00;5027984;28;20029;-83
2021/12/21 05:37:06;;;;;;;0.20;0.20;;;;;;;1.77;64.97;102833.88;5022599;28;20034;-82
2021/12/21 05:39:42;;;;;;;0.10;0.10;;;;;;;1.77;64.33;102832.16;5031078;28;20033;-83
2021/12/21 05:42:08;;;;;;;0.20;0.20;;;;;;;1.76;64.66;102838.19;5026054;28;20026;-83
2021/12/21 05:44:35;;;;;;;0.10;0.10;;;;;;;1.76;64.26;102832.09;5027482;28;20036;-82
2021/12/21 05:47:01;;;;;;;0.20;0.20;;;;;;;1.75;64.55;102845.97;5026324;28;20029;-83
2021/12/21 05:49:27;;;;;;;0.20;0.20;;;;;;;1.72;63.83;102840.56;5029444;28;20038;-82
2021/12/21 05:51:54;;;;;;;0.10;0.10;;;;;;;1.71;63.63;102836.19;5033263;28;20029;-84
2021/12/21 05:54:21;;;;;;;0.20;0.20;;;;;;;1.69;64.18;102841.31;5025765;28;20634;-84
2021/12/21 05:56:47;;;;;;;0.13;0.13;;;;;;;1.69;63.79;102835.22;5024940;28;20033;-83
2021/12/21 05:59:14;;;;;;;0.20;0.20;;;;;;;1.67;64.02;102836.84;5021454;28;20053;-83
2021/12/21 06:01:40;;;;;;;0.17;0.17;;;;;;;1.67;64.34;102839.44;5022438;28;20030;-80
2021/12/21 06:04:06;;;;;;;0.20;0.20;;;;;;;1.66;64.39;102829.81;5021585;28;20030;-86
2021/12/21 06:06:33;;;;;;;0.43;0.43;;;;;;;1.64;64.08;102837.59;5022457;28;20117;-85
2021/12/21 06:09:03;;;;;;;0.28;0.28;;;;;;;1.64;64.10;102844.53;5027176;28;20061;-84
2021/12/21 06:11:32;;;;;;;0.10;0.10;;;;;;;1.63;64.61;102834.91;5021885;28;20049;-85
2021/12/21 06:14:12;;;;;;;0.10;0.10;;;;;;;1.61;64.38;102838.34;5024892;28;20380;-84
2021/12/21 06:25:24;;;;;;;0.20;0.20;;;;;;;1.58;64.30;102835.59;5071711;28;20123;-85
2021/12/21 06:27:40;;;;;;;0.10;0.10;;;;;;;1.57;64.46;102836.41;5031710;28;20033;-85
2021/12/21 06:30:07;;;;;;;0.20;0.20;;;;;;;1.56;64.59;102834.59;5043576;28;20040;-86
2021/12/21 06:32:34;;;;;;;0.20;0.20;;;;;;;1.57;64.16;102840.72;5051142;28;20650;-85
2021/12/21 06:35:00;;;;;;;0.17;0.17;;;;;;;1.54;64.39;102831.00;5052522;28;20029;-84
2021/12/21 06:37:26;;;;;;;0.20;0.20;;;;;;;1.54;64.40;102831.00;5052072;28;20033;-85
2021/12/21 06:39:53;;;;;;;0.20;0.20;;;;;;;1.54;64.03;102844.06;5046555;28;20041;-84
2021/12/21 06:42:19;;;;;;;0.20;0.20;;;;;;;1.54;64.39;102833.63;5045741;28;20037;-86
2021/12/21 06:44:53;;;;;;;0.20;0.20;;;;;;;1.54;64.68;102838.84;5051659;28;20090;-85
2021/12/21 06:52:52;;;;;;;1.20;1.10;;;;;;;1.49;64.37;102848.19;5048477;28;20053;-87
2021/12/21 06:55:18;;;;;;;0.20;0.20;;;;;;;1.48;64.61;102840.28;5037807;28;20483;-87
2021/12/21 06:57:44;;;;;;;0.10;0.10;;;;;;;1.45;64.51;102841.91;5051361;28;20040;-88
2021/12/21 07:00:13;;;;;;;0.15;0.15;;;;;;;1.43;64.60;102845.25;5048082;28;20136;-88
2021/12/21 07:02:40;;;;;;;0.20;0.20;;;;;;;1.39;64.25;102843.31;5046838;28;20535;-88
2021/12/21 07:05:07;;;;;;;0.20;0.20;;;;;;;1.37;63.84;102837.13;5038866;28;20068;-82
2021/12/21 07:07:34;;;;;;;0.20;0.20;;;;;;;1.34;64.11;102847.44;5032044;28;20032;-87
2021/12/21 07:10:04;;;;;;;0.17;0.17;;;;;;;1.31;64.38;102840.34;5046997;28;20049;-86
2021/12/21 07:18:10;;;;;;;0.20;0.20;;;;;;;1.28;64.08;102835.84;5065425;28;20037;-84
2021/12/21 07:20:37;;;;;;;0.20;0.20;;;;;;;1.28;64.08;102846.31;5052370;28;20059;-85
2021/12/21 07:23:04;;;;;;;0.55;0.55;;;;;;;1.26;64.31;102841.81;5051943;28;20443;-85
2021/12/21 07:25:31;;;;;;;0.20;0.20;;;;;;;1.25;64.10;102840.91;5051421;28;20034;-84
2021/12/21 07:27:57;;;;;;;0.20;0.20;;;;;;;1.23;63.86;102842.53;5050654;28;20040;-86
2021/12/21 07:30:24;;;;;;;0.10;0.10;;;;;;;1.23;63.53;102852.09;5051919;28;20072;-84
2021/12/21 07:32:50;;;;;;;0.20;0.20;;;;;;;1.23;63.49;102849.50;5050419;28;20086;-84
2021/12/21 07:35:17;;;;;;;0.20;0.20;;;;;;;1.22;63.93;102859.06;5050440;28;20049;-85
2021/12/21 07:37:43;;;;;;;0.20;0.20;;;;;;;1.23;63.94;102852.97;5047742;28;20472;-85
2021/12/21 07:40:10;;;;;;;0.20;0.20;;;;;;;1.24;64.17;102856.50;5050217;28;20036;-85
2021/12/21 07:42:36;;;;;;;0.20;0.20;;;;;;;1.25;64.12;102851.34;5050580;28;20035;-85
2021/12/21 07:45:02;;;;;;;0.20;0.20;;;;;;;1.26;64.12;102852.28;5050954;28;20048;-85
2021/12/21 07:47:28;;;;;;;0.10;0.10;;;;;;;1.27;64.27;102851.44;5048662;28;20366;-84
2021/12/21 07:49:55;;;;;;;0.20;0.20;;;;;;;1.27;63.66;102852.34;5047520;28;20106;-85
2021/12/21 07:52:22;;;;;;;0.20;0.20;;;;;;;1.29;63.75;102855.03;5044982;28;20204;-85
2021/12/21 07:54:48;;;;;;;0.20;0.20;;;;;;;1.27;63.58;102854.03;5047016;28;20061;-85
2021/12/21 07:57:14;;;;;;;0.20;0.20;;;;;;;1.26;63.26;102849.66;5049657;28;20039;-85
2021/12/21 07:59:42;;;;;;;0.63;0.63;;;;;;;1.25;63.72;102848.75;5050391;28;20029;-86
2021/12/21 08:02:09;;;;;;;0.10;0.10;;;;;;;1.27;63.40;102861.88;5050065;28;20075;-85
2021/12/21 08:04:38;;;;;;;1.20;1.20;;;;;;;1.29;63.99;102857.63;5050566;28;20025;-85
2021/12/21 08:07:10;;;;;;;0.13;0.13;;;;;;;1.31;62.87;102855.09;5049876;28;20032;-85
2021/12/21 08:09:41;;;;;;;0.10;0.10;;;;;;;1.28;63.54;102869.81;5049305;28;20063;-85
2021/12/21 08:12:17;;;;;;;0.40;0.40;;;;;;;1.30;63.74;102872.50;5048230;28;20025;-85
2021/12/21 08:14:45;;;;;;;0.20;0.20;;;;;;;1.32;63.90;102869.94;5047114;28;20037;-85
2021/12/21 08:17:12;;;;;;;0.20;0.20;;;;;;;1.32;64.19;102872.56;5047392;28;20029;-83
2021/12/21 08:19:38;;;;;;;0.20;0.20;;;;;;;1.34;64.06;102876.16;5049928;28;20037;-89
2021/12/21 08:22:05;;;;;;;0.20;0.20;;;;;;;1.36;64.28;102877.13;5051471;28;20021;-89
2021/12/21 08:24:31;;;;;;;0.20;0.20;;;;;;;1.37;64.41;102881.53;5047465;28;20120;-88
2021/12/21 08:26:59;;;;;;;0.10;0.10;;;;;;;1.40;64.29;102879.09;5030482;28;20038;-87
2021/12/21 08:29:26;;;;;;;0.20;0.20;;;;;;;1.39;64.35;102886.00;5036154;28;20475;-87
2021/12/21 08:31:52;;;;;;;0.20;0.20;;;;;;;1.43;64.41;102884.44;5031553;28;20038;-89
2021/12/21 08:34:20;;;;;;;0.10;0.10;;;;;;;1.46;64.03;102887.22;5024755;28;20041;-88
2021/12/21 08:36:46;;;;;;;0.43;0.43;;;;;;;1.49;63.90;102899.53;5039559;28;20025;-88
2021/12/21 08:39:14;;;;;;;0.20;0.20;;;;;;;1.50;64.07;102897.00;5035078;28;20082;-88
2021/12/21 08:41:43;;;;;;;0.40;0.40;;;;;;;1.52;64.47;102894.47;5037161;28;20062;-91
2021/12/21 08:44:11;;;;;;;0.20;0.20;;;;;;;1.55;64.89;102902.47;5038063;28;20028;-90
2021/12/21 08:46:39;;;;;;;0.20;0.20;;;;;;;1.57;64.48;102906.03;5037845;28;20036;-90
2021/12/21 08:49:05;;;;;;;0.10;0.10;;;;;;;1.58;64.46;102900.00;5038667;28;20013;-89
2021/12/21 08:51:31;;;;;;;0.20;0.20;;;;;;;1.61;64.55;102898.44;5037248;28;20040;-86
2021/12/21 08:53:58;;;;;;;0.13;0.13;;;;;;;1.64;64.90;102907.25;5033845;28;20056;-88
2021/12/21 08:56:24;;;;;;;0.20;0.20;;;;;;;1.66;64.68;102893.44;5036325;28;20025;-89
2021/12/21 08:58:53;;;;;;;0.20;0.20;;;;;;;1.69;64.67;102893.59;5036853;28;20022;-90
2021/12/21 09:01:19;;;;;;;0.10;0.10;;;;;;;1.72;64.58;102888.53;5026207;28;20380;-90
2021/12/21 09:03:46;;;;;;;0.13;0.13;;;;;;;1.76;64.68;102880.00;5035797;28;20057;-89
2021/12/21 09:06:12;;;;;;;0.20;0.20;;;;;;;1.80;64.24;102882.78;5038502;28;20500;-85
2021/12/21 09:08:39;;;;;;;0.32;0.32;;;;;;;1.81;64.15;102888.09;5038515;28;20365;-89
2021/12/21 09:11:05;;;;;;;0.80;0.80;;;;;;;1.85;64.17;102878.69;5051093;28;20030;-90
2021/12/21 09:13:32;;;;;;;0.10;0.10;;;;;;;1.89;64.18;102875.38;5052437;28;20044;-90
2021/12/21 09:15:59;;;;;;;0.10;0.10;;;;;;;1.91;64.20;102879.88;5042601;28;20078;-89
2021/12/21 09:18:25;;;;;;;0.10;0.10;;;;;;;1.97;64.05;102891.44;5041662;28;20472;-90
2021/12/21 09:20:51;;;;;;;0.20;0.20;;;;;;;2.00;64.14;102891.59;5033758;28;20507;-91
2021/12/21 09:23:27;;;;;;;0.20;0.20;;;;;;;2.04;64.08;102885.69;5031875;28;20038;-91
2021/12/21 09:25:53;;;;;;;0.10;0.10;;;;;;;2.07;64.13;102880.63;5017700;28;20026;-90
2021/12/21 09:28:19;;;;;;;0.20;0.20;;;;;;;2.11;64.15;102887.78;5032617;28;20037;-91
2021/12/21 09:30:46;;;;;;;0.10;0.10;;;;;;;2.18;64.28;102886.34;5035401;28;20032;-89
2021/12/21 09:33:12;;;;;;;0.68;0.68;;;;;;;2.23;64.18;102876.97;5035653;28;20435;-92
2021/12/21 09:35:39;;;;;;;0.10;0.10;;;;;;;2.26;64.16;102875.41;5035925;28;20491;-92
2021/12/21 09:38:05;;;;;;;0.52;0.52;;;;;;;2.32;63.76;102873.91;5036510;28;20380;-92
2021/12/21 09:40:38;;;;;;;0.20;0.20;;;;;;;2.37;64.09;102881.16;5040044;28;20042;-91
2021/12/21 09:43:07;;;;;;;0.10;0.10;;;;;;;2.43;64.03;102872.72;5041361;28;20037;-91
2021/12/21 09:45:34;;;;;;;0.20;0.20;;;;;;;2.50;64.15;102882.63;5041144;28;20025;-92
2021/12/21 09:48:00;;;;;;;0.10;0.10;;;;;;;2.55;64.16;102878.47;5042044;28;20033;-91
2021/12/21 09:50:26;;;;;;;0.10;0.10;;;;;;;2.64;64.28;102866.66;5036769;28;20026;-91
2021/12/21 09:52:54;;;;;;;0.20;0.20;;;;;;;2.71;64.17;102856.53;5034859;28;20022;-92
2021/12/21 09:55:21;;;;;;;0.17;0.17;;;;;;;2.79;64.23;102871.69;5035300;28;20091;-93
2021/12/21 09:57:49;;;;;;;0.20;0.20;;;;;;;2.86;64.61;102872.03;5037389;28;20018;-90
2021/12/21 10:00:20;;;;;;;0.20;0.20;;;;;;;2.96;64.44;102872.44;5036246;28;20060;-87
2021/12/21 10:02:47;;;;;;;0.20;0.20;;;;;;;3.01;64.40;102870.91;5031251;28;20432;-96
2021/12/21 10:05:38;;;;;;;0.20;0.20;;;;;;;3.10;64.17;102868.69;5034113;28;20506;-91
2021/12/21 10:10:53;;;;;;;0.63;0.63;;;;;;;3.30;64.55;102874.81;5106838;27;20183;-87
2021/12/21 10:13:22;;;;;;;0.15;0.15;;;;;;;3.35;64.44;102878.53;5110967;28;20555;-90
2021/12/21 10:15:51;;;;;;;0.10;0.10;;;;;;;3.43;64.38;102880.53;5112858;28;20040;-91
2021/12/21 10:18:27;;;;;;;0.20;0.20;;;;;;;3.54;64.26;102876.69;5103866;28;20054;-91
2021/12/21 10:20:55;;;;;;;0.57;0.57;;;;;;;3.55;64.29;102871.50;5092909;28;20059;-91
2021/12/21 10:23:27;;;;;;;0.10;0.10;;;;;;;3.63;64.43;102870.94;5073548;28;20044;-91
2021/12/21 10:28:40;;;;;;;0.10;0.10;;;;;;;3.76;63.96;102870.56;5057541;27;20837;-89
2021/12/21 10:31:10;;;;;;;0.20;0.20;;;;;;;3.78;64.32;102871.53;5039293;28;20068;-89
2021/12/21 10:33:39;;;;;;;0.10;0.10;;;;;;;3.82;64.53;102869.94;5039508;28;20029;-89
2021/12/21 10:36:08;;;;;;;0.10;0.10;;;;;;;3.88;64.80;102865.81;5047557;28;20483;-86
2021/12/21 10:38:37;;;;;;;0.13;0.13;;;;;;;3.96;64.89;102842.56;5052071;28;20033;-88
2021/12/21 10:41:10;;;;;;;0.20;0.20;;;;;;;4.07;64.63;102834.22;5031602;28;20029;-86
2021/12/21 10:43:38;;;;;;;0.20;0.20;;;;;;;4.10;64.12;102822.09;5030434;28;20037;-86
2021/12/21 10:46:05;;;;;;;0.20;0.20;;;;;;;4.14;64.54;102818.75;5030707;28;20037;-86
2021/12/21 10:48:35;;;;;;;0.10;0.10;;;;;;;4.20;63.94;102821.63;5030365;28;20116;-85
2021/12/21 10:51:04;;;;;;;0.20;0.20;;;;;;;4.27;64.47;102821.84;5029489;28;20098;-87
2021/12/21 10:53:32;;;;;;;0.20;0.20;;;;;;;4.33;64.34;102825.59;5029828;28;20033;-86
2021/12/21 10:56:04;;;;;;;0.10;0.10;;;;;;;4.45;64.31;102814.66;5030124;28;20373;-85
2021/12/21 10:58:31;;;;;;;0.20;0.20;;;;;;;4.54;64.56;102817.63;5029683;28;20076;-83
2021/12/21 11:01:02;;;;;;;0.10;0.10;;;;;;;4.66;64.31;102808.41;5032722;28;20025;-76
2021/12/21 11:03:51;;;;;;;0.20;0.20;;;;;;;4.72;64.12;102806.00;5040533;28;20033;-87
2021/12/21 11:06:24;;;;;;;0.63;0.63;;;;;;;4.78;63.67;102803.59;5032250;28;20029;-88
2021/12/21 11:08:54;;;;;;;0.70;0.70;;;;;;;4.85;63.59;102812.59;5035453;28;20033;-87
2021/12/21 11:14:10;;;;;;;0.20;0.20;;;;;;;5.06;63.58;102817.72;5071003;28;20448;-88
2021/12/21 11:16:41;;;;;;;22.02;4.15;;;;;;;5.17;63.55;102821.59;5051445;28;20548;-87
2021/12/21 11:19:09;;;;;;;0.10;0.10;;;;;;;5.22;63.22;102806.00;5036448;28;20072;-89
2021/12/21 11:21:36;;;;;;;0.10;0.10;;;;;;;5.29;62.97;102807.09;5031089;28;20100;-89
2021/12/21 11:24:07;;;;;;;0.20;0.20;;;;;;;5.39;62.57;102800.41;5029390;28;20045;-88
2021/12/21 11:26:35;;;;;;;2.20;1.38;;;;;;;5.45;62.42;102795.34;5030466;28;20034;-87
2021/12/21 11:29:07;;;;;;;0.45;0.45;;;;;;;5.54;61.88;102805.28;5029153;28;20041;-89
2021/12/21 11:31:40;;;;;;;0.20;0.20;;;;;;;5.60;61.86;102800.22;5029979;28;20022;-90
2021/12/21 11:34:08;;;;;;;;;;;;;;;5.78;61.20;102806.06;5030512;28;20022;-87
2021/12/21 11:39:22;;;;;;;0.10;0.10;;;;;;;5.78;61.33;102794.63;5029947;28;20061;-89
2021/12/21 11:41:50;;;;;;;0.10;0.10;;;;;;;5.83;61.45;102793.94;5030365;28;20044;-88
2021/12/21 11:44:28;;;;;;;0.28;0.28;;;;;;;5.89;61.49;102787.06;5025113;28;20021;-89
2021/12/21 11:50:00;;;;;;;0.10;0.10;;;;;;;6.06;60.90;102777.97;5067357;27;20421;-86
2021/12/21 11:52:28;;;;;;;0.20;0.20;;;;;;;6.02;61.12;102778.75;5037019;28;20040;-86
2021/12/21 11:55:04;;;;;;;0.20;0.20;;;;;;;6.08;61.05;102773.66;5035681;28;20037;-86
2021/12/21 11:57:37;;;;;;;0.10;0.10;;;;;;;6.14;60.98;102773.84;5049883;28;20132;-85
2021/12/21 12:02:53;;;;;;;0.10;0.10;;;;;;;6.19;60.56;102770.44;5070626;27;20439;-84
2021/12/21 12:08:15;;;;;;;0.15;0.15;;;;;;;6.29;60.50;102760.25;5086016;28;20752;-86
2021/12/21 12:10:59;;;;;;;0.47;0.47;;;;;;;6.33;60.71;102763.84;5068272;28;20476;-86
2021/12/21 12:13:43;;;;;;;0.10;0.10;;;;;;;6.34;59.84;102765.63;5064716;28;20159;-88
2021/12/21 12:16:12;;;;;;;0.70;0.70;;;;;;;6.30;59.68;102764.63;5064572;28;20025;-85
2021/12/21 12:18:43;;;;;;;0.28;0.28;;;;;;;6.38;60.08;102754.34;5071226;28;20539;-86
2021/12/21 12:24:01;;;;;;;0.20;0.20;;;;;;;6.53;59.84;102745.06;5064516;27;20414;-88
2021/12/21 12:29:18;;;;;;;0.43;0.43;;;;;;;6.65;58.39;102737.50;5051373;27;20437;-85
2021/12/21 12:32:07;;;;;;;0.20;0.20;;;;;;;6.67;58.28;102738.44;5028671;28;20138;-88
2021/12/21 12:34:36;;;;;;;0.10;0.10;;;;;;;6.71;58.51;102734.16;5033373;28;20073;-88
2021/12/21 12:37:17;;;;;;;0.13;0.13;;;;;;;6.78;58.08;102731.72;5030917;28;20121;-85
2021/12/21 12:39:47;;;;;;;0.22;0.22;;;;;;;6.71;58.86;102735.03;5036293;28;20030;-83
2021/12/21 12:42:21;;;;;;;0.10;0.10;;;;;;;6.74;59.03;102734.22;5036615;28;20113;-81
2021/12/21 12:44:50;;;;;;;0.20;0.20;;;;;;;6.71;58.23;102739.41;5026501;28;20034;-85
2021/12/21 12:47:17;;;;;;;0.32;0.32;;;;;;;6.73;59.43;102740.31;5026567;28;20108;-83
2021/12/21 12:49:54;;;;;;;0.60;0.30;;;;;;;6.77;59.39;102735.19;5029768;28;20041;-85
2021/12/21 12:52:28;;;;;;;0.10;0.10;;;;;;;6.72;58.94;102725.41;5023416;28;20030;-86
2021/12/21 12:54:58;;;;;;;0.10;0.10;;;;;;;6.72;58.65;102728.91;5023804;28;20044;-84
2021/12/21 12:57:51;;;;;;;0.10;0.10;;;;;;;6.78;57.36;102734.34;5022045;28;20045;-83
2021/12/21 13:00:26;;;;;;;;;;;;;;;6.85;58.23;102735.38;5028130;28;20108;-83
2021/12/21 13:02:58;;;;;;;0.10;0.10;;;;;;;6.71;59.03;102727.13;5034258;28;19921;-85
2021/12/21 13:05:28;;;;;;;0.10;0.10;;;;;;;6.72;58.58;102718.38;5028958;28;20040;-85
2021/12/21 13:08:04;;;;;;;0.10;0.10;;;;;;;6.74;58.47;102724.59;5022281;28;20431;-86